Naval Communications Area Ma, Virginia
Current Conditions -  °F | °C
As of 12:07 PM on Wednesday 26 Nov 2014 (Local Time) from KNGU Reporting Station
Moderate Rain Moderate Rain  
Wind Chill: 40°   Ceiling: 900
Heat Index: 48°   Visibility: 2.5mi
Dew Point: 43°   Wind: 29mph
Humidity: 83%   Direction: 360°N
Pressure: 29.82"   Gusts: 39mph
Location:  36.9343°N, 76.284°W
Report Text: KNGU 261707Z 36025G34KT 2 1/2SM RA BR BKN009 OVC015 09/06 A2982 RMK AO2 PK WND 36034/1701 T00890061 PNO $
Loading
Personal Weather Stations






























Interactive Weather Map New forecast layout! Learn more

10-Day Weather Forecast

Advertisements
Track Severe Weather on mobile